sensor_id;sensor_type;location;lat;lon;timestamp;pressure;altitude;pressure_sealevel;temperature
79488;BMP180;68949;53.176;18.088;2023-06-04T00:00:33;101211.40;;;
79488;BMP180;68949;53.176;18.088;2023-06-04T00:03:19;101214.80;;;
79488;BMP180;68949;53.176;18.088;2023-06-04T00:05:46;101210.60;;;
79488;BMP180;68949;53.176;18.088;2023-06-04T00:08:13;101211.80;;;
79488;BMP180;68949;53.176;18.088;2023-06-04T00:10:40;101209.80;;;
79488;BMP180;68949;53.176;18.088;2023-06-04T00:13:07;101206.20;;;
79488;BMP180;68949;53.176;18.088;2023-06-04T00:15:33;101203.60;;;
79488;BMP180;68949;53.176;18.088;2023-06-04T00:18:00;101205.40;;;
79488;BMP180;68949;53.176;18.088;2023-06-04T00:20:27;101205.20;;;
79488;BMP180;68949;53.176;18.088;2023-06-04T00:22:54;101203.60;;;
79488;BMP180;68949;53.176;18.088;2023-06-04T00:25:20;101203.80;;;
79488;BMP180;68949;53.176;18.088;2023-06-04T00:27:47;101204.40;;;
79488;BMP180;68949;53.176;18.088;2023-06-04T00:30:14;101203.80;;;
79488;BMP180;68949;53.176;18.088;2023-06-04T00:32:41;101198.80;;;
79488;BMP180;68949;53.176;18.088;2023-06-04T00:35:08;101199.20;;;
79488;BMP180;68949;53.176;18.088;2023-06-04T00:37:36;101195.60;;;
79488;BMP180;68949;53.176;18.088;2023-06-04T00:40:03;101196.00;;;
79488;BMP180;68949;53.176;18.088;2023-06-04T00:42:30;101200.20;;;
79488;BMP180;68949;53.176;18.088;2023-06-04T00:44:58;101195.40;;;
79488;BMP180;68949;53.176;18.088;2023-06-04T00:47:25;101203.00;;;
79488;BMP180;68949;53.176;18.088;2023-06-04T00:49:57;101194.60;;;
79488;BMP180;68949;53.176;18.088;2023-06-04T00:52:25;101201.20;;;
79488;BMP180;68949;53.176;18.088;2023-06-04T00:54:52;101197.00;;;
79488;BMP180;68949;53.176;18.088;2023-06-04T00:57:23;101200.40;;;
79488;BMP180;68949;53.176;18.088;2023-06-04T00:59:53;101201.60;;;
79488;BMP180;68949;53.176;18.088;2023-06-04T01:02:23;101198.20;;;
79488;BMP180;68949;53.176;18.088;2023-06-04T01:04:58;101200.20;;;
79488;BMP180;68949;53.176;18.088;2023-06-04T01:07:27;101197.40;;;
79488;BMP180;68949;53.176;18.088;2023-06-04T01:09:55;101188.60;;;
79488;BMP180;68949;53.176;18.088;2023-06-04T01:12:22;101185.80;;;
79488;BMP180;68949;53.176;18.088;2023-06-04T01:14:49;101191.20;;;
79488;BMP180;68949;53.176;18.088;2023-06-04T01:17:26;101193.00;;;
79488;BMP180;68949;53.176;18.088;2023-06-04T01:20:20;101196.40;;;
79488;BMP180;68949;53.176;18.088;2023-06-04T01:28:02;101203.20;;;
79488;BMP180;68949;53.176;18.088;2023-06-04T01:30:33;101211.00;;;
79488;BMP180;68949;53.176;18.088;2023-06-04T01:33:02;101207.40;;;
79488;BMP180;68949;53.176;18.088;2023-06-04T01:35:30;101207.80;;;
79488;BMP180;68949;53.176;18.088;2023-06-04T01:37:59;101203.40;;;
79488;BMP180;68949;53.176;18.088;2023-06-04T01:40:26;101204.60;;;
79488;BMP180;68949;53.176;18.088;2023-06-04T01:42:54;101209.20;;;
79488;BMP180;68949;53.176;18.088;2023-06-04T01:45:23;101218.80;;;
79488;BMP180;68949;53.176;18.088;2023-06-04T01:47:51;101221.00;;;
79488;BMP180;68949;53.176;18.088;2023-06-04T01:50:19;101215.60;;;
79488;BMP180;68949;53.176;18.088;2023-06-04T01:52:46;101224.40;;;
79488;BMP180;68949;53.176;18.088;2023-06-04T01:55:16;101225.40;;;
79488;BMP180;68949;53.176;18.088;2023-06-04T01:57:44;101221.60;;;
79488;BMP180;68949;53.176;18.088;2023-06-04T02:00:12;101213.00;;;
79488;BMP180;68949;53.176;18.088;2023-06-04T02:02:45;101212.60;;;
79488;BMP180;68949;53.176;18.088;2023-06-04T02:05:15;101217.60;;;
79488;BMP180;68949;53.176;18.088;2023-06-04T02:07:44;101213.20;;;
79488;BMP180;68949;53.176;18.088;2023-06-04T02:10:18;101201.80;;;
79488;BMP180;68949;53.176;18.088;2023-06-04T02:12:58;101209.20;;;
79488;BMP180;68949;53.176;18.088;2023-06-04T02:15:26;101209.60;;;
79488;BMP180;68949;53.176;18.088;2023-06-04T02:17:59;101216.00;;;
79488;BMP180;68949;53.176;18.088;2023-06-04T02:20:27;101210.80;;;
79488;BMP180;68949;53.176;18.088;2023-06-04T02:22:55;101211.80;;;
79488;BMP180;68949;53.176;18.088;2023-06-04T02:25:23;101214.20;;;
79488;BMP180;68949;53.176;18.088;2023-06-04T02:27:50;101217.00;;;
79488;BMP180;68949;53.176;18.088;2023-06-04T02:30:16;101215.40;;;
79488;BMP180;68949;53.176;18.088;2023-06-04T02:32:43;101212.00;;;
79488;BMP180;68949;53.176;18.088;2023-06-04T02:35:11;101208.80;;;
79488;BMP180;68949;53.176;18.088;2023-06-04T02:37:38;101208.80;;;
79488;BMP180;68949;53.176;18.088;2023-06-04T02:40:06;101221.00;;;
79488;BMP180;68949;53.176;18.088;2023-06-04T02:42:33;101216.60;;;
79488;BMP180;68949;53.176;18.088;2023-06-04T02:45:00;101221.40;;;
79488;BMP180;68949;53.176;18.088;2023-06-04T02:47:27;101219.20;;;
79488;BMP180;68949;53.176;18.088;2023-06-04T02:49:54;101218.20;;;
79488;BMP180;68949;53.176;18.088;2023-06-04T02:52:20;101210.40;;;
79488;BMP180;68949;53.176;18.088;2023-06-04T02:54:49;101214.80;;;
79488;BMP180;68949;53.176;18.088;2023-06-04T02:57:16;101209.20;;;
79488;BMP180;68949;53.176;18.088;2023-06-04T02:59:45;101205.80;;;
79488;BMP180;68949;53.176;18.088;2023-06-04T03:02:11;101203.00;;;
79488;BMP180;68949;53.176;18.088;2023-06-04T03:04:39;101197.00;;;
79488;BMP180;68949;53.176;18.088;2023-06-04T03:07:07;101186.60;;;
79488;BMP180;68949;53.176;18.088;2023-06-04T03:09:34;101188.00;;;
79488;BMP180;68949;53.176;18.088;2023-06-04T03:12:02;101175.60;;;
79488;BMP180;68949;53.176;18.088;2023-06-04T03:14:32;101173.00;;;
79488;BMP180;68949;53.176;18.088;2023-06-04T03:17:00;101165.00;;;
79488;BMP180;68949;53.176;18.088;2023-06-04T03:19:28;101170.40;;;
79488;BMP180;68949;53.176;18.088;2023-06-04T03:21:54;101167.00;;;
79488;BMP180;68949;53.176;18.088;2023-06-04T03:24:23;101179.60;;;
79488;BMP180;68949;53.176;18.088;2023-06-04T03:26:50;101181.00;;;
79488;BMP180;68949;53.176;18.088;2023-06-04T03:29:17;101175.20;;;
79488;BMP180;68949;53.176;18.088;2023-06-04T03:31:45;101184.20;;;
79488;BMP180;68949;53.176;18.088;2023-06-04T03:34:11;101174.20;;;
79488;BMP180;68949;53.176;18.088;2023-06-04T03:36:38;101175.00;;;
79488;BMP180;68949;53.176;18.088;2023-06-04T03:39:06;101185.80;;;
79488;BMP180;68949;53.176;18.088;2023-06-04T03:41:33;101193.20;;;
79488;BMP180;68949;53.176;18.088;2023-06-04T03:44:00;101174.60;;;
79488;BMP180;68949;53.176;18.088;2023-06-04T03:46:28;101181.20;;;
79488;BMP180;68949;53.176;18.088;2023-06-04T03:48:58;101186.80;;;
79488;BMP180;68949;53.176;18.088;2023-06-04T03:51:27;101182.40;;;
79488;BMP180;68949;53.176;18.088;2023-06-04T03:53:54;101184.40;;;
79488;BMP180;68949;53.176;18.088;2023-06-04T03:56:22;101185.40;;;
79488;BMP180;68949;53.176;18.088;2023-06-04T03:58:48;101181.60;;;
79488;BMP180;68949;53.176;18.088;2023-06-04T04:01:15;101178.60;;;
79488;BMP180;68949;53.176;18.088;2023-06-04T04:03:44;101182.80;;;
79488;BMP180;68949;53.176;18.088;2023-06-04T04:06:15;101175.20;;;
79488;BMP180;68949;53.176;18.088;2023-06-04T04:08:43;101166.00;;;
79488;BMP180;68949;53.176;18.088;2023-06-04T04:11:16;101169.80;;;
79488;BMP180;68949;53.176;18.088;2023-06-04T04:13:45;101173.40;;;
79488;BMP180;68949;53.176;18.088;2023-06-04T04:16:13;101170.40;;;
79488;BMP180;68949;53.176;18.088;2023-06-04T04:18:42;101171.00;;;
79488;BMP180;68949;53.176;18.088;2023-06-04T04:21:12;101170.20;;;
79488;BMP180;68949;53.176;18.088;2023-06-04T04:23:39;101164.20;;;
79488;BMP180;68949;53.176;18.088;2023-06-04T04:26:09;101166.00;;;
79488;BMP180;68949;53.176;18.088;2023-06-04T04:28:37;101158.80;;;
79488;BMP180;68949;53.176;18.088;2023-06-04T04:31:04;101165.00;;;
79488;BMP180;68949;53.176;18.088;2023-06-04T04:33:36;101165.00;;;
79488;BMP180;68949;53.176;18.088;2023-06-04T04:36:07;101157.80;;;
79488;BMP180;68949;53.176;18.088;2023-06-04T04:38:40;101161.60;;;
79488;BMP180;68949;53.176;18.088;2023-06-04T04:41:07;101161.80;;;
79488;BMP180;68949;53.176;18.088;2023-06-04T04:43:36;101161.00;;;
79488;BMP180;68949;53.176;18.088;2023-06-04T04:46:17;101156.40;;;
79488;BMP180;68949;53.176;18.088;2023-06-04T04:48:43;101163.20;;;
79488;BMP180;68949;53.176;18.088;2023-06-04T04:51:10;101156.40;;;
79488;BMP180;68949;53.176;18.088;2023-06-04T04:53:37;101153.00;;;
79488;BMP180;68949;53.176;18.088;2023-06-04T04:56:04;101153.60;;;
79488;BMP180;68949;53.176;18.088;2023-06-04T04:58:32;101156.40;;;
79488;BMP180;68949;53.176;18.088;2023-06-04T05:00:58;101161.20;;;
79488;BMP180;68949;53.176;18.088;2023-06-04T05:03:25;101157.60;;;
79488;BMP180;68949;53.176;18.088;2023-06-04T05:05:52;101160.60;;;
79488;BMP180;68949;53.176;18.088;2023-06-04T05:08:19;101155.00;;;
79488;BMP180;68949;53.176;18.088;2023-06-04T05:10:46;101153.60;;;
79488;BMP180;68949;53.176;18.088;2023-06-04T05:13:13;101160.00;;;
79488;BMP180;68949;53.176;18.088;2023-06-04T05:15:44;101157.20;;;
79488;BMP180;68949;53.176;18.088;2023-06-04T05:18:12;101157.40;;;
79488;BMP180;68949;53.176;18.088;2023-06-04T05:20:39;101162.00;;;
79488;BMP180;68949;53.176;18.088;2023-06-04T05:23:08;101161.40;;;
79488;BMP180;68949;53.176;18.088;2023-06-04T05:25:35;101164.00;;;
79488;BMP180;68949;53.176;18.088;2023-06-04T05:28:03;101165.40;;;
79488;BMP180;68949;53.176;18.088;2023-06-04T05:30:33;101164.20;;;
79488;BMP180;68949;53.176;18.088;2023-06-04T05:33:00;101161.80;;;
79488;BMP180;68949;53.176;18.088;2023-06-04T05:35:27;101164.20;;;
79488;BMP180;68949;53.176;18.088;2023-06-04T05:37:54;101166.00;;;
79488;BMP180;68949;53.176;18.088;2023-06-04T05:40:23;101164.00;;;
79488;BMP180;68949;53.176;18.088;2023-06-04T05:42:50;101169.60;;;
79488;BMP180;68949;53.176;18.088;2023-06-04T05:45:17;101173.00;;;
79488;BMP180;68949;53.176;18.088;2023-06-04T05:47:44;101170.80;;;
79488;BMP180;68949;53.176;18.088;2023-06-04T05:50:11;101168.60;;;
79488;BMP180;68949;53.176;18.088;2023-06-04T05:52:38;101167.80;;;
79488;BMP180;68949;53.176;18.088;2023-06-04T05:55:08;101173.40;;;
79488;BMP180;68949;53.176;18.088;2023-06-04T05:57:36;101178.20;;;
79488;BMP180;68949;53.176;18.088;2023-06-04T06:00:03;101183.80;;;
79488;BMP180;68949;53.176;18.088;2023-06-04T06:02:41;101182.80;;;
79488;BMP180;68949;53.176;18.088;2023-06-04T06:05:10;101185.00;;;
79488;BMP180;68949;53.176;18.088;2023-06-04T06:07:37;101188.40;;;
79488;BMP180;68949;53.176;18.088;2023-06-04T06:10:05;101188.80;;;
79488;BMP180;68949;53.176;18.088;2023-06-04T06:12:34;101189.80;;;
79488;BMP180;68949;53.176;18.088;2023-06-04T06:15:01;101187.00;;;
79488;BMP180;68949;53.176;18.088;2023-06-04T06:17:28;101185.00;;;
79488;BMP180;68949;53.176;18.088;2023-06-04T06:19:55;101182.40;;;
79488;BMP180;68949;53.176;18.088;2023-06-04T06:22:23;101193.80;;;
79488;BMP180;68949;53.176;18.088;2023-06-04T06:24:50;101202.40;;;
79488;BMP180;68949;53.176;18.088;2023-06-04T06:27:18;101195.40;;;
79488;BMP180;68949;53.176;18.088;2023-06-04T06:29:45;101183.40;;;
79488;BMP180;68949;53.176;18.088;2023-06-04T06:32:13;101189.40;;;
79488;BMP180;68949;53.176;18.088;2023-06-04T06:34:39;101177.60;;;
79488;BMP180;68949;53.176;18.088;2023-06-04T06:37:06;101183.40;;;
79488;BMP180;68949;53.176;18.088;2023-06-04T06:39:33;101177.20;;;
79488;BMP180;68949;53.176;18.088;2023-06-04T06:42:00;101188.80;;;
79488;BMP180;68949;53.176;18.088;2023-06-04T06:44:33;101188.80;;;
79488;BMP180;68949;53.176;18.088;2023-06-04T06:47:00;101196.60;;;
79488;BMP180;68949;53.176;18.088;2023-06-04T06:49:27;101178.60;;;
79488;BMP180;68949;53.176;18.088;2023-06-04T06:51:54;101172.00;;;
79488;BMP180;68949;53.176;18.088;2023-06-04T06:54:21;101174.80;;;
79488;BMP180;68949;53.176;18.088;2023-06-04T06:56:48;101187.60;;;
79488;BMP180;68949;53.176;18.088;2023-06-04T06:59:16;101180.40;;;
79488;BMP180;68949;53.176;18.088;2023-06-04T07:01:43;101194.20;;;
79488;BMP180;68949;53.176;18.088;2023-06-04T07:04:09;101182.00;;;
79488;BMP180;68949;53.176;18.088;2023-06-04T07:06:36;101182.80;;;
79488;BMP180;68949;53.176;18.088;2023-06-04T07:09:03;101166.40;;;
79488;BMP180;68949;53.176;18.088;2023-06-04T07:11:32;101181.20;;;
79488;BMP180;68949;53.176;18.088;2023-06-04T07:13:59;101173.40;;;
79488;BMP180;68949;53.176;18.088;2023-06-04T07:16:28;101172.40;;;
79488;BMP180;68949;53.176;18.088;2023-06-04T07:18:55;101174.20;;;
79488;BMP180;68949;53.176;18.088;2023-06-04T07:21:22;101169.00;;;
79488;BMP180;68949;53.176;18.088;2023-06-04T07:23:50;101174.80;;;
79488;BMP180;68949;53.176;18.088;2023-06-04T07:26:17;101159.40;;;
79488;BMP180;68949;53.176;18.088;2023-06-04T07:28:44;101171.00;;;
79488;BMP180;68949;53.176;18.088;2023-06-04T07:31:16;101160.00;;;
79488;BMP180;68949;53.176;18.088;2023-06-04T07:33:43;101163.60;;;
79488;BMP180;68949;53.176;18.088;2023-06-04T07:36:12;101175.20;;;
79488;BMP180;68949;53.176;18.088;2023-06-04T07:38:40;101164.00;;;
79488;BMP180;68949;53.176;18.088;2023-06-04T07:41:07;101159.60;;;
79488;BMP180;68949;53.176;18.088;2023-06-04T07:43:35;101158.00;;;
79488;BMP180;68949;53.176;18.088;2023-06-04T07:46:03;101160.80;;;
79488;BMP180;68949;53.176;18.088;2023-06-04T07:48:30;101165.40;;;
79488;BMP180;68949;53.176;18.088;2023-06-04T07:50:59;101159.80;;;
79488;BMP180;68949;53.176;18.088;2023-06-04T07:53:27;101162.40;;;
79488;BMP180;68949;53.176;18.088;2023-06-04T07:55:54;101174.00;;;
79488;BMP180;68949;53.176;18.088;2023-06-04T07:58:21;101156.80;;;
79488;BMP180;68949;53.176;18.088;2023-06-04T08:00:48;101151.20;;;
79488;BMP180;68949;53.176;18.088;2023-06-04T08:03:15;101157.80;;;
79488;BMP180;68949;53.176;18.088;2023-06-04T08:05:42;101147.00;;;
79488;BMP180;68949;53.176;18.088;2023-06-04T08:08:08;101141.80;;;
79488;BMP180;68949;53.176;18.088;2023-06-04T08:10:35;101157.60;;;
79488;BMP180;68949;53.176;18.088;2023-06-04T08:13:02;101160.60;;;
79488;BMP180;68949;53.176;18.088;2023-06-04T08:15:29;101146.20;;;
79488;BMP180;68949;53.176;18.088;2023-06-04T08:17:56;101172.20;;;
79488;BMP180;68949;53.176;18.088;2023-06-04T08:20:27;101166.20;;;
79488;BMP180;68949;53.176;18.088;2023-06-04T08:22:53;101145.00;;;
79488;BMP180;68949;53.176;18.088;2023-06-04T08:25:20;101159.60;;;
79488;BMP180;68949;53.176;18.088;2023-06-04T08:27:47;101166.40;;;
79488;BMP180;68949;53.176;18.088;2023-06-04T08:30:14;101163.80;;;
79488;BMP180;68949;53.176;18.088;2023-06-04T08:32:41;101164.60;;;
79488;BMP180;68949;53.176;18.088;2023-06-04T08:35:08;101160.20;;;
79488;BMP180;68949;53.176;18.088;2023-06-04T08:37:35;101159.00;;;
79488;BMP180;68949;53.176;18.088;2023-06-04T08:40:02;101132.40;;;
79488;BMP180;68949;53.176;18.088;2023-06-04T08:42:41;101155.40;;;
79488;BMP180;68949;53.176;18.088;2023-06-04T08:45:13;101159.40;;;
79488;BMP180;68949;53.176;18.088;2023-06-04T08:47:44;101155.80;;;
79488;BMP180;68949;53.176;18.088;2023-06-04T08:50:18;101162.00;;;
79488;BMP180;68949;53.176;18.088;2023-06-04T08:52:45;101151.00;;;
79488;BMP180;68949;53.176;18.088;2023-06-04T08:55:14;101143.20;;;
79488;BMP180;68949;53.176;18.088;2023-06-04T08:57:41;101154.40;;;
79488;BMP180;68949;53.176;18.088;2023-06-04T09:00:08;101151.80;;;
79488;BMP180;68949;53.176;18.088;2023-06-04T09:02:37;101155.20;;;
79488;BMP180;68949;53.176;18.088;2023-06-04T09:05:07;101156.40;;;
79488;BMP180;68949;53.176;18.088;2023-06-04T09:07:37;101160.20;;;
79488;BMP180;68949;53.176;18.088;2023-06-04T09:10:07;101161.20;;;
79488;BMP180;68949;53.176;18.088;2023-06-04T09:12:41;101153.00;;;
79488;BMP180;68949;53.176;18.088;2023-06-04T09:15:08;101147.20;;;
79488;BMP180;68949;53.176;18.088;2023-06-04T09:17:35;101148.20;;;
79488;BMP180;68949;53.176;18.088;2023-06-04T09:20:02;101146.40;;;
79488;BMP180;68949;53.176;18.088;2023-06-04T09:22:35;101135.60;;;
79488;BMP180;68949;53.176;18.088;2023-06-04T09:25:06;101139.20;;;
79488;BMP180;68949;53.176;18.088;2023-06-04T09:27:39;101117.40;;;
79488;BMP180;68949;53.176;18.088;2023-06-04T09:30:07;101145.60;;;
79488;BMP180;68949;53.176;18.088;2023-06-04T09:32:37;101154.60;;;
79488;BMP180;68949;53.176;18.088;2023-06-04T09:35:18;101136.60;;;
79488;BMP180;68949;53.176;18.088;2023-06-04T09:37:56;101130.20;;;
79488;BMP180;68949;53.176;18.088;2023-06-04T09:40:24;101136.00;;;
79488;BMP180;68949;53.176;18.088;2023-06-04T09:42:51;101112.20;;;
79488;BMP180;68949;53.176;18.088;2023-06-04T09:45:33;101139.60;;;
79488;BMP180;68949;53.176;18.088;2023-06-04T09:48:02;101127.00;;;
79488;BMP180;68949;53.176;18.088;2023-06-04T09:50:34;101129.60;;;
79488;BMP180;68949;53.176;18.088;2023-06-04T09:53:00;101116.20;;;
79488;BMP180;68949;53.176;18.088;2023-06-04T09:55:28;101098.40;;;
79488;BMP180;68949;53.176;18.088;2023-06-04T09:57:58;101117.00;;;
79488;BMP180;68949;53.176;18.088;2023-06-04T10:00:26;101129.20;;;
79488;BMP180;68949;53.176;18.088;2023-06-04T10:02:58;101136.60;;;
79488;BMP180;68949;53.176;18.088;2023-06-04T10:05:32;101121.60;;;
79488;BMP180;68949;53.176;18.088;2023-06-04T10:08:03;101127.00;;;
79488;BMP180;68949;53.176;18.088;2023-06-04T10:10:36;101125.40;;;
79488;BMP180;68949;53.176;18.088;2023-06-04T10:13:17;101116.40;;;
79488;BMP180;68949;53.176;18.088;2023-06-04T10:15:46;101128.20;;;
79488;BMP180;68949;53.176;18.088;2023-06-04T10:18:16;101128.00;;;
79488;BMP180;68949;53.176;18.088;2023-06-04T10:20:43;101108.20;;;
79488;BMP180;68949;53.176;18.088;2023-06-04T10:23:10;101116.20;;;
79488;BMP180;68949;53.176;18.088;2023-06-04T10:25:37;101120.00;;;
79488;BMP180;68949;53.176;18.088;2023-06-04T10:28:04;101097.20;;;
79488;BMP180;68949;53.176;18.088;2023-06-04T10:30:31;101113.20;;;
79488;BMP180;68949;53.176;18.088;2023-06-04T10:32:59;101125.40;;;
79488;BMP180;68949;53.176;18.088;2023-06-04T10:35:35;101132.20;;;
79488;BMP180;68949;53.176;18.088;2023-06-04T10:38:13;101127.80;;;
79488;BMP180;68949;53.176;18.088;2023-06-04T10:40:40;101140.20;;;
79488;BMP180;68949;53.176;18.088;2023-06-04T10:43:10;101121.40;;;
79488;BMP180;68949;53.176;18.088;2023-06-04T10:45:38;101124.40;;;
79488;BMP180;68949;53.176;18.088;2023-06-04T10:48:08;101116.20;;;
79488;BMP180;68949;53.176;18.088;2023-06-04T10:50:51;101120.00;;;
79488;BMP180;68949;53.176;18.088;2023-06-04T10:53:19;101115.80;;;
79488;BMP180;68949;53.176;18.088;2023-06-04T10:55:48;101113.00;;;
79488;BMP180;68949;53.176;18.088;2023-06-04T10:58:15;101107.40;;;
79488;BMP180;68949;53.176;18.088;2023-06-04T11:00:46;101099.60;;;
79488;BMP180;68949;53.176;18.088;2023-06-04T11:03:13;101116.60;;;
79488;BMP180;68949;53.176;18.088;2023-06-04T11:05:46;101112.60;;;
79488;BMP180;68949;53.176;18.088;2023-06-04T11:08:14;101096.00;;;
79488;BMP180;68949;53.176;18.088;2023-06-04T11:10:44;101109.20;;;
79488;BMP180;68949;53.176;18.088;2023-06-04T11:13:12;101108.80;;;
79488;BMP180;68949;53.176;18.088;2023-06-04T11:15:45;101108.00;;;
79488;BMP180;68949;53.176;18.088;2023-06-04T11:18:18;101118.00;;;
79488;BMP180;68949;53.176;18.088;2023-06-04T11:20:49;101099.60;;;
79488;BMP180;68949;53.176;18.088;2023-06-04T11:23:16;101104.00;;;
79488;BMP180;68949;53.176;18.088;2023-06-04T11:25:44;101116.80;;;
79488;BMP180;68949;53.176;18.088;2023-06-04T11:28:21;101110.60;;;
79488;BMP180;68949;53.176;18.088;2023-06-04T11:31:00;101107.60;;;
79488;BMP180;68949;53.176;18.088;2023-06-04T11:33:46;101108.40;;;
79488;BMP180;68949;53.176;18.088;2023-06-04T11:36:28;101092.20;;;
79488;BMP180;68949;53.176;18.088;2023-06-04T11:39:00;101088.60;;;
79488;BMP180;68949;53.176;18.088;2023-06-04T11:41:30;101082.80;;;
79488;BMP180;68949;53.176;18.088;2023-06-04T11:44:01;101092.20;;;
79488;BMP180;68949;53.176;18.088;2023-06-04T11:46:28;101092.40;;;
79488;BMP180;68949;53.176;18.088;2023-06-04T11:48:55;101076.60;;;
79488;BMP180;68949;53.176;18.088;2023-06-04T11:51:22;101090.20;;;
79488;BMP180;68949;53.176;18.088;2023-06-04T11:53:50;101080.40;;;
79488;BMP180;68949;53.176;18.088;2023-06-04T11:56:17;101082.40;;;
79488;BMP180;68949;53.176;18.088;2023-06-04T11:58:45;101071.20;;;
79488;BMP180;68949;53.176;18.088;2023-06-04T12:01:13;101085.60;;;
79488;BMP180;68949;53.176;18.088;2023-06-04T12:03:42;101082.00;;;
79488;BMP180;68949;53.176;18.088;2023-06-04T12:06:15;101073.80;;;
79488;BMP180;68949;53.176;18.088;2023-06-04T12:08:53;101080.20;;;
79488;BMP180;68949;53.176;18.088;2023-06-04T12:11:29;101082.40;;;
79488;BMP180;68949;53.176;18.088;2023-06-04T12:14:05;101075.60;;;
79488;BMP180;68949;53.176;18.088;2023-06-04T12:16:33;101092.20;;;
79488;BMP180;68949;53.176;18.088;2023-06-04T12:19:06;101080.40;;;
79488;BMP180;68949;53.176;18.088;2023-06-04T12:21:33;101091.40;;;
79488;BMP180;68949;53.176;18.088;2023-06-04T12:24:13;101095.40;;;
79488;BMP180;68949;53.176;18.088;2023-06-04T12:26:42;101097.60;;;
79488;BMP180;68949;53.176;18.088;2023-06-04T12:29:13;101070.20;;;
79488;BMP180;68949;53.176;18.088;2023-06-04T12:31:42;101082.80;;;
79488;BMP180;68949;53.176;18.088;2023-06-04T12:34:10;101071.60;;;
79488;BMP180;68949;53.176;18.088;2023-06-04T12:36:38;101081.80;;;
79488;BMP180;68949;53.176;18.088;2023-06-04T12:39:05;101070.80;;;
79488;BMP180;68949;53.176;18.088;2023-06-04T12:41:34;101073.00;;;
79488;BMP180;68949;53.176;18.088;2023-06-04T12:44:01;101075.60;;;
79488;BMP180;68949;53.176;18.088;2023-06-04T12:46:28;101076.20;;;
79488;BMP180;68949;53.176;18.088;2023-06-04T12:48:55;101073.20;;;
79488;BMP180;68949;53.176;18.088;2023-06-04T12:51:22;101075.20;;;
79488;BMP180;68949;53.176;18.088;2023-06-04T12:53:49;101084.60;;;
79488;BMP180;68949;53.176;18.088;2023-06-04T12:56:16;101080.60;;;
79488;BMP180;68949;53.176;18.088;2023-06-04T12:58:42;101083.60;;;
79488;BMP180;68949;53.176;18.088;2023-06-04T13:01:09;101094.60;;;
79488;BMP180;68949;53.176;18.088;2023-06-04T13:03:37;101084.00;;;
79488;BMP180;68949;53.176;18.088;2023-06-04T13:06:05;101075.20;;;
79488;BMP180;68949;53.176;18.088;2023-06-04T13:08:33;101083.40;;;
79488;BMP180;68949;53.176;18.088;2023-06-04T13:11:00;101081.20;;;
79488;BMP180;68949;53.176;18.088;2023-06-04T13:13:28;101082.80;;;
79488;BMP180;68949;53.176;18.088;2023-06-04T13:15:56;101072.40;;;
79488;BMP180;68949;53.176;18.088;2023-06-04T13:18:22;101066.60;;;
79488;BMP180;68949;53.176;18.088;2023-06-04T13:20:49;101066.20;;;
79488;BMP180;68949;53.176;18.088;2023-06-04T13:23:16;101072.40;;;
79488;BMP180;68949;53.176;18.088;2023-06-04T13:25:43;101063.00;;;
79488;BMP180;68949;53.176;18.088;2023-06-04T13:28:10;101060.20;;;
79488;BMP180;68949;53.176;18.088;2023-06-04T13:30:38;101063.20;;;
79488;BMP180;68949;53.176;18.088;2023-06-04T13:33:06;101063.60;;;
79488;BMP180;68949;53.176;18.088;2023-06-04T13:35:32;101056.60;;;
79488;BMP180;68949;53.176;18.088;2023-06-04T13:37:59;101060.60;;;
79488;BMP180;68949;53.176;18.088;2023-06-04T13:40:26;101055.40;;;
79488;BMP180;68949;53.176;18.088;2023-06-04T13:42:53;101057.60;;;
79488;BMP180;68949;53.176;18.088;2023-06-04T13:45:20;101063.20;;;
79488;BMP180;68949;53.176;18.088;2023-06-04T13:47:48;101048.20;;;
79488;BMP180;68949;53.176;18.088;2023-06-04T13:50:15;101054.80;;;
79488;BMP180;68949;53.176;18.088;2023-06-04T13:52:42;101051.40;;;
79488;BMP180;68949;53.176;18.088;2023-06-04T13:55:09;101068.80;;;
79488;BMP180;68949;53.176;18.088;2023-06-04T13:57:36;101057.80;;;
79488;BMP180;68949;53.176;18.088;2023-06-04T14:00:04;101063.40;;;
79488;BMP180;68949;53.176;18.088;2023-06-04T14:02:31;101060.20;;;
79488;BMP180;68949;53.176;18.088;2023-06-04T14:04:57;101061.80;;;
79488;BMP180;68949;53.176;18.088;2023-06-04T14:07:24;101049.80;;;
79488;BMP180;68949;53.176;18.088;2023-06-04T14:09:51;101050.40;;;
79488;BMP180;68949;53.176;18.088;2023-06-04T14:12:22;101058.20;;;
79488;BMP180;68949;53.176;18.088;2023-06-04T14:14:50;101047.80;;;
79488;BMP180;68949;53.176;18.088;2023-06-04T14:17:17;101055.80;;;
79488;BMP180;68949;53.176;18.088;2023-06-04T14:19:44;101049.60;;;
79488;BMP180;68949;53.176;18.088;2023-06-04T14:22:11;101047.40;;;
79488;BMP180;68949;53.176;18.088;2023-06-04T14:24:40;101054.60;;;
79488;BMP180;68949;53.176;18.088;2023-06-04T14:27:10;101048.40;;;
79488;BMP180;68949;53.176;18.088;2023-06-04T14:29:37;101055.40;;;
79488;BMP180;68949;53.176;18.088;2023-06-04T14:32:04;101043.80;;;
79488;BMP180;68949;53.176;18.088;2023-06-04T14:34:31;101046.00;;;
79488;BMP180;68949;53.176;18.088;2023-06-04T14:37:00;101050.60;;;
79488;BMP180;68949;53.176;18.088;2023-06-04T14:39:27;101053.80;;;
79488;BMP180;68949;53.176;18.088;2023-06-04T14:41:54;101043.40;;;
79488;BMP180;68949;53.176;18.088;2023-06-04T14:44:21;101054.00;;;
79488;BMP180;68949;53.176;18.088;2023-06-04T14:46:49;101045.20;;;
79488;BMP180;68949;53.176;18.088;2023-06-04T14:49:17;101051.20;;;
79488;BMP180;68949;53.176;18.088;2023-06-04T14:51:45;101044.20;;;
79488;BMP180;68949;53.176;18.088;2023-06-04T14:54:13;101040.00;;;
79488;BMP180;68949;53.176;18.088;2023-06-04T14:56:40;101031.80;;;
79488;BMP180;68949;53.176;18.088;2023-06-04T14:59:07;101039.60;;;
79488;BMP180;68949;53.176;18.088;2023-06-04T15:01:35;101022.20;;;